sensor_id;sensor_type;location;lat;lon;timestamp;pressure;altitude;pressure_sealevel;temperature;humidity
26083;BME280;13848;49.018;12.078;2022-07-23T00:02:00;97672.72;;;23.67;55.82
26083;BME280;13848;49.018;12.078;2022-07-23T00:04:26;97666.34;;;23.52;56.42
26083;BME280;13848;49.018;12.078;2022-07-23T00:06:52;97667.97;;;23.40;57.36
26083;BME280;13848;49.018;12.078;2022-07-23T00:09:18;97664.00;;;23.46;56.96
26083;BME280;13848;49.018;12.078;2022-07-23T00:11:44;97668.78;;;23.40;56.87
26083;BME280;13848;49.018;12.078;2022-07-23T00:14:10;97659.00;;;23.34;57.22
26083;BME280;13848;49.018;12.078;2022-07-23T00:16:35;97655.84;;;23.41;57.36
26083;BME280;13848;49.018;12.078;2022-07-23T00:19:03;97654.44;;;23.43;57.32
26083;BME280;13848;49.018;12.078;2022-07-23T00:21:29;97647.81;;;23.44;57.12
26083;BME280;13848;49.018;12.078;2022-07-23T00:23:55;97645.97;;;23.40;57.17
26083;BME280;13848;49.018;12.078;2022-07-23T00:26:21;97637.69;;;23.53;56.51
26083;BME280;13848;49.018;12.078;2022-07-23T00:28:46;97638.00;;;23.52;56.84
26083;BME280;13848;49.018;12.078;2022-07-23T00:31:12;97642.59;;;23.29;57.44
26083;BME280;13848;49.018;12.078;2022-07-23T00:33:38;97634.34;;;23.29;56.98
26083;BME280;13848;49.018;12.078;2022-07-23T00:36:06;97631.81;;;23.32;57.72
26083;BME280;13848;49.018;12.078;2022-07-23T00:38:33;97621.13;;;23.31;57.33
26083;BME280;13848;49.018;12.078;2022-07-23T00:40:59;97616.00;;;23.38;57.47
26083;BME280;13848;49.018;12.078;2022-07-23T00:43:24;97615.19;;;23.38;57.26
26083;BME280;13848;49.018;12.078;2022-07-23T00:45:51;97615.63;;;23.31;57.92
26083;BME280;13848;49.018;12.078;2022-07-23T00:48:17;97605.81;;;23.39;57.43
26083;BME280;13848;49.018;12.078;2022-07-23T00:50:43;97586.69;;;23.20;57.77
26083;BME280;13848;49.018;12.078;2022-07-23T00:53:11;97595.03;;;23.15;58.33
26083;BME280;13848;49.018;12.078;2022-07-23T00:55:38;97583.00;;;23.10;58.51
26083;BME280;13848;49.018;12.078;2022-07-23T00:58:04;97592.16;;;23.06;58.42
26083;BME280;13848;49.018;12.078;2022-07-23T01:00:30;97586.78;;;23.15;56.90
26083;BME280;13848;49.018;12.078;2022-07-23T01:02:56;97590.94;;;23.40;55.75
26083;BME280;13848;49.018;12.078;2022-07-23T01:05:22;97593.59;;;23.17;56.20
26083;BME280;13848;49.018;12.078;2022-07-23T01:07:49;97587.06;;;23.27;56.17
26083;BME280;13848;49.018;12.078;2022-07-23T01:10:17;97573.91;;;23.24;56.23
26083;BME280;13848;49.018;12.078;2022-07-23T01:12:43;97579.53;;;23.32;55.73
26083;BME280;13848;49.018;12.078;2022-07-23T01:15:09;97582.56;;;23.45;54.77
26083;BME280;13848;49.018;12.078;2022-07-23T01:17:35;97589.31;;;23.39;55.34
26083;BME280;13848;49.018;12.078;2022-07-23T01:20:01;97589.09;;;23.49;55.29
26083;BME280;13848;49.018;12.078;2022-07-23T01:22:29;97595.31;;;23.54;54.48
26083;BME280;13848;49.018;12.078;2022-07-23T01:24:55;97611.41;;;23.47;55.05
26083;BME280;13848;49.018;12.078;2022-07-23T01:27:21;97619.66;;;23.47;55.19
26083;BME280;13848;49.018;12.078;2022-07-23T01:29:47;97621.81;;;23.50;56.10
26083;BME280;13848;49.018;12.078;2022-07-23T01:32:13;97628.66;;;23.39;57.09
26083;BME280;13848;49.018;12.078;2022-07-23T01:34:39;97629.84;;;23.19;58.63
26083;BME280;13848;49.018;12.078;2022-07-23T01:37:05;97637.09;;;23.29;58.04
26083;BME280;13848;49.018;12.078;2022-07-23T01:39:32;97638.63;;;23.35;58.31
26083;BME280;13848;49.018;12.078;2022-07-23T01:41:58;97634.56;;;23.32;58.02
26083;BME280;13848;49.018;12.078;2022-07-23T01:44:24;97645.25;;;23.20;58.70
26083;BME280;13848;49.018;12.078;2022-07-23T01:46:50;97646.34;;;23.05;58.85
26083;BME280;13848;49.018;12.078;2022-07-23T01:49:16;97638.53;;;23.26;57.70
26083;BME280;13848;49.018;12.078;2022-07-23T01:51:42;97633.94;;;23.22;58.16
26083;BME280;13848;49.018;12.078;2022-07-23T01:54:08;97633.13;;;23.21;57.61
26083;BME280;13848;49.018;12.078;2022-07-23T01:56:35;97633.22;;;23.16;58.46
26083;BME280;13848;49.018;12.078;2022-07-23T01:59:01;97649.81;;;23.11;58.99
26083;BME280;13848;49.018;12.078;2022-07-23T02:01:27;97658.19;;;23.20;58.54
26083;BME280;13848;49.018;12.078;2022-07-23T02:03:52;97680.91;;;23.53;56.86
26083;BME280;13848;49.018;12.078;2022-07-23T02:06:18;97709.59;;;23.66;56.44
26083;BME280;13848;49.018;12.078;2022-07-23T02:08:44;97714.44;;;23.41;56.35
26083;BME280;13848;49.018;12.078;2022-07-23T02:11:10;97729.38;;;23.68;55.64
26083;BME280;13848;49.018;12.078;2022-07-23T02:13:37;97720.16;;;23.58;55.91
26083;BME280;13848;49.018;12.078;2022-07-23T02:16:04;97714.16;;;23.43;56.05
26083;BME280;13848;49.018;12.078;2022-07-23T02:18:30;97740.91;;;23.23;57.20
26083;BME280;13848;49.018;12.078;2022-07-23T02:20:55;97754.56;;;23.15;56.42
26083;BME280;13848;49.018;12.078;2022-07-23T02:23:21;97772.28;;;23.08;56.41
26083;BME280;13848;49.018;12.078;2022-07-23T02:25:47;97752.47;;;23.39;54.38
26083;BME280;13848;49.018;12.078;2022-07-23T02:28:13;97755.41;;;23.29;54.21
26083;BME280;13848;49.018;12.078;2022-07-23T02:30:40;97751.47;;;23.49;54.19
26083;BME280;13848;49.018;12.078;2022-07-23T02:33:06;97746.88;;;23.44;53.87
26083;BME280;13848;49.018;12.078;2022-07-23T02:35:32;97751.25;;;23.45;53.93
26083;BME280;13848;49.018;12.078;2022-07-23T02:37:58;97741.25;;;23.35;54.21
26083;BME280;13848;49.018;12.078;2022-07-23T02:40:24;97735.63;;;23.27;54.46
26083;BME280;13848;49.018;12.078;2022-07-23T02:42:50;97744.22;;;23.39;54.25
26083;BME280;13848;49.018;12.078;2022-07-23T02:45:16;97746.88;;;23.44;53.92
26083;BME280;13848;49.018;12.078;2022-07-23T02:47:45;97724.69;;;23.54;54.48
26083;BME280;13848;49.018;12.078;2022-07-23T02:50:11;97736.28;;;23.38;54.62
26083;BME280;13848;49.018;12.078;2022-07-23T02:52:37;97744.63;;;23.46;55.07
26083;BME280;13848;49.018;12.078;2022-07-23T02:55:03;97730.19;;;23.54;54.29
26083;BME280;13848;49.018;12.078;2022-07-23T02:57:29;97729.75;;;23.47;54.28
26083;BME280;13848;49.018;12.078;2022-07-23T02:59:55;97717.72;;;23.43;54.57
26083;BME280;13848;49.018;12.078;2022-07-23T03:02:21;97710.47;;;23.47;54.58
26083;BME280;13848;49.018;12.078;2022-07-23T03:04:49;97707.09;;;23.36;56.09
26083;BME280;13848;49.018;12.078;2022-07-23T03:07:15;97712.59;;;23.23;56.65
26083;BME280;13848;49.018;12.078;2022-07-23T03:09:41;97697.41;;;23.12;57.67
26083;BME280;13848;49.018;12.078;2022-07-23T03:12:08;97689.94;;;22.98;57.68
26083;BME280;13848;49.018;12.078;2022-07-23T03:14:34;97701.69;;;22.85;59.04
26083;BME280;13848;49.018;12.078;2022-07-23T03:17:00;97700.16;;;22.79;59.09
26083;BME280;13848;49.018;12.078;2022-07-23T03:19:26;97731.75;;;22.63;60.26
26083;BME280;13848;49.018;12.078;2022-07-23T03:21:53;97759.44;;;22.47;61.97
26083;BME280;13848;49.018;12.078;2022-07-23T03:24:19;97775.09;;;22.66;62.76
26083;BME280;13848;49.018;12.078;2022-07-23T03:26:45;97770.66;;;22.70;62.19
26083;BME280;13848;49.018;12.078;2022-07-23T03:29:11;97774.81;;;22.48;62.08
26083;BME280;13848;49.018;12.078;2022-07-23T03:31:37;97768.56;;;22.43;63.21
26083;BME280;13848;49.018;12.078;2022-07-23T03:34:03;97757.00;;;22.27;63.42
26083;BME280;13848;49.018;12.078;2022-07-23T03:36:29;97758.19;;;22.21;64.78
26083;BME280;13848;49.018;12.078;2022-07-23T03:38:56;97748.94;;;22.12;64.17
26083;BME280;13848;49.018;12.078;2022-07-23T03:41:22;97722.97;;;22.23;64.41
26083;BME280;13848;49.018;12.078;2022-07-23T03:43:48;97714.38;;;22.11;66.22
26083;BME280;13848;49.018;12.078;2022-07-23T03:46:14;97701.75;;;22.10;63.26
26083;BME280;13848;49.018;12.078;2022-07-23T03:48:40;97691.16;;;22.22;63.15
26083;BME280;13848;49.018;12.078;2022-07-23T03:51:05;97687.25;;;22.42;62.55
26083;BME280;13848;49.018;12.078;2022-07-23T03:53:31;97696.78;;;22.30;64.05
26083;BME280;13848;49.018;12.078;2022-07-23T03:55:59;97690.16;;;22.13;65.81
26083;BME280;13848;49.018;12.078;2022-07-23T03:58:25;97687.41;;;22.31;64.36
26083;BME280;13848;49.018;12.078;2022-07-23T04:00:51;97689.03;;;22.14;65.24
26083;BME280;13848;49.018;12.078;2022-07-23T04:03:17;97678.06;;;22.14;64.53
26083;BME280;13848;49.018;12.078;2022-07-23T04:05:43;97694.53;;;22.14;65.46
26083;BME280;13848;49.018;12.078;2022-07-23T04:08:09;97693.81;;;22.27;62.27
26083;BME280;13848;49.018;12.078;2022-07-23T04:10:34;97670.88;;;22.18;63.05
26083;BME280;13848;49.018;12.078;2022-07-23T04:13:02;97654.91;;;22.20;63.61
26083;BME280;13848;49.018;12.078;2022-07-23T04:15:28;97639.16;;;22.07;66.65
26083;BME280;13848;49.018;12.078;2022-07-23T04:17:54;97640.84;;;22.02;66.54
26083;BME280;13848;49.018;12.078;2022-07-23T04:20:20;97637.72;;;21.90;67.05
26083;BME280;13848;49.018;12.078;2022-07-23T04:22:46;97639.28;;;21.77;67.80
26083;BME280;13848;49.018;12.078;2022-07-23T04:25:11;97648.63;;;21.76;67.61
26083;BME280;13848;49.018;12.078;2022-07-23T04:27:37;97665.31;;;21.80;67.94
26083;BME280;13848;49.018;12.078;2022-07-23T04:30:06;97669.13;;;21.84;67.53
26083;BME280;13848;49.018;12.078;2022-07-23T04:32:32;97677.59;;;21.88;66.24
26083;BME280;13848;49.018;12.078;2022-07-23T04:34:58;97672.06;;;22.12;63.17
26083;BME280;13848;49.018;12.078;2022-07-23T04:37:24;97681.13;;;22.12;62.84
26083;BME280;13848;49.018;12.078;2022-07-23T04:39:50;97683.09;;;22.07;63.73
26083;BME280;13848;49.018;12.078;2022-07-23T04:42:16;97670.97;;;22.08;63.57
26083;BME280;13848;49.018;12.078;2022-07-23T04:44:42;97644.84;;;21.91;65.46
26083;BME280;13848;49.018;12.078;2022-07-23T04:47:10;97660.38;;;22.01;65.81
26083;BME280;13848;49.018;12.078;2022-07-23T04:49:36;97669.25;;;22.17;63.52
26083;BME280;13848;49.018;12.078;2022-07-23T04:52:02;97659.19;;;22.07;64.41
26083;BME280;13848;49.018;12.078;2022-07-23T04:54:28;97659.88;;;22.18;64.78
26083;BME280;13848;49.018;12.078;2022-07-23T04:56:54;97669.66;;;22.05;66.13
26083;BME280;13848;49.018;12.078;2022-07-23T04:59:20;97669.34;;;22.07;66.80
26083;BME280;13848;49.018;12.078;2022-07-23T05:01:46;97674.50;;;22.13;65.38
26083;BME280;13848;49.018;12.078;2022-07-23T05:04:13;97670.97;;;22.08;66.29
26083;BME280;13848;49.018;12.078;2022-07-23T05:06:39;97665.50;;;22.08;65.83
26083;BME280;13848;49.018;12.078;2022-07-23T05:09:05;97669.81;;;22.14;64.24
26083;BME280;13848;49.018;12.078;2022-07-23T05:11:31;97669.69;;;22.24;64.04
26083;BME280;13848;49.018;12.078;2022-07-23T05:13:57;97667.25;;;22.22;64.58
26083;BME280;13848;49.018;12.078;2022-07-23T05:16:23;97668.88;;;22.23;64.02
26083;BME280;13848;49.018;12.078;2022-07-23T05:18:49;97671.59;;;22.04;63.51
26083;BME280;13848;49.018;12.078;2022-07-23T05:21:16;97677.41;;;22.22;63.54
26083;BME280;13848;49.018;12.078;2022-07-23T05:23:42;97682.59;;;22.42;61.66
26083;BME280;13848;49.018;12.078;2022-07-23T05:26:08;97680.81;;;22.51;60.90
26083;BME280;13848;49.018;12.078;2022-07-23T05:28:34;97680.94;;;22.41;61.35
26083;BME280;13848;49.018;12.078;2022-07-23T05:31:00;97688.50;;;22.49;61.49
26083;BME280;13848;49.018;12.078;2022-07-23T05:33:25;97685.28;;;22.61;61.08
26083;BME280;13848;49.018;12.078;2022-07-23T05:35:51;97677.47;;;22.36;61.58
26083;BME280;13848;49.018;12.078;2022-07-23T05:38:19;97689.28;;;22.36;61.99
26083;BME280;13848;49.018;12.078;2022-07-23T05:40:45;97681.56;;;22.38;61.53
26083;BME280;13848;49.018;12.078;2022-07-23T05:43:10;97688.81;;;22.48;61.96
26083;BME280;13848;49.018;12.078;2022-07-23T05:45:36;97682.06;;;22.40;62.61
26083;BME280;13848;49.018;12.078;2022-07-23T05:48:03;97682.59;;;22.42;64.45
26083;BME280;13848;49.018;12.078;2022-07-23T05:50:29;97679.09;;;22.37;64.79
26083;BME280;13848;49.018;12.078;2022-07-23T05:52:55;97685.94;;;22.39;64.36
26083;BME280;13848;49.018;12.078;2022-07-23T05:55:22;97685.56;;;22.46;64.80
26083;BME280;13848;49.018;12.078;2022-07-23T05:57:48;97699.50;;;22.49;63.23
26083;BME280;13848;49.018;12.078;2022-07-23T06:00:15;97711.09;;;22.46;62.11
26083;BME280;13848;49.018;12.078;2022-07-23T06:02:41;97710.72;;;22.53;61.57
26083;BME280;13848;49.018;12.078;2022-07-23T06:05:08;97702.41;;;22.58;61.29
26083;BME280;13848;49.018;12.078;2022-07-23T06:07:34;97717.72;;;22.78;61.10
26083;BME280;13848;49.018;12.078;2022-07-23T06:10:00;97715.28;;;22.76;62.96
26083;BME280;13848;49.018;12.078;2022-07-23T06:12:28;97721.59;;;22.96;61.93
26083;BME280;13848;49.018;12.078;2022-07-23T06:14:54;97726.13;;;22.87;61.94
26083;BME280;13848;49.018;12.078;2022-07-23T06:17:19;97730.22;;;22.89;61.34
26083;BME280;13848;49.018;12.078;2022-07-23T06:19:45;97733.13;;;22.98;61.44
26083;BME280;13848;49.018;12.078;2022-07-23T06:22:11;97726.97;;;22.87;61.95
26083;BME280;13848;49.018;12.078;2022-07-23T06:24:37;97735.22;;;22.87;61.54
26083;BME280;13848;49.018;12.078;2022-07-23T06:27:03;97737.22;;;22.81;62.40
26083;BME280;13848;49.018;12.078;2022-07-23T06:29:31;97738.41;;;22.94;62.21
26083;BME280;13848;49.018;12.078;2022-07-23T06:31:56;97750.44;;;22.98;61.76
26083;BME280;13848;49.018;12.078;2022-07-23T06:34:22;97758.28;;;23.05;60.55
26083;BME280;13848;49.018;12.078;2022-07-23T06:36:48;97756.78;;;23.13;60.03
26083;BME280;13848;49.018;12.078;2022-07-23T06:39:14;97754.13;;;23.07;58.72
26083;BME280;13848;49.018;12.078;2022-07-23T06:41:40;97764.69;;;23.00;59.63
26083;BME280;13848;49.018;12.078;2022-07-23T06:44:06;97763.56;;;23.34;58.86
26083;BME280;13848;49.018;12.078;2022-07-23T06:46:33;97762.72;;;23.20;58.89
26083;BME280;13848;49.018;12.078;2022-07-23T06:48:59;97773.34;;;23.40;58.25
26083;BME280;13848;49.018;12.078;2022-07-23T06:51:25;97783.69;;;23.16;58.79
26083;BME280;13848;49.018;12.078;2022-07-23T06:53:51;97787.28;;;23.30;58.08
26083;BME280;13848;49.018;12.078;2022-07-23T06:56:17;97786.19;;;23.31;57.90
26083;BME280;13848;49.018;12.078;2022-07-23T06:58:43;97791.22;;;23.56;58.08
26083;BME280;13848;49.018;12.078;2022-07-23T07:01:09;97774.22;;;23.54;56.88
26083;BME280;13848;49.018;12.078;2022-07-23T07:03:36;97775.84;;;23.55;56.63
26083;BME280;13848;49.018;12.078;2022-07-23T07:06:03;97782.09;;;23.28;56.96
26083;BME280;13848;49.018;12.078;2022-07-23T07:08:29;97782.75;;;23.39;56.49
26083;BME280;13848;49.018;12.078;2022-07-23T07:10:55;97778.03;;;23.26;57.47
26083;BME280;13848;49.018;12.078;2022-07-23T07:13:21;97783.69;;;23.16;57.46
26083;BME280;13848;49.018;12.078;2022-07-23T07:15:47;97789.72;;;23.18;57.63
26083;BME280;13848;49.018;12.078;2022-07-23T07:18:13;97789.03;;;23.26;57.12
26083;BME280;13848;49.018;12.078;2022-07-23T07:20:40;97780.06;;;23.20;57.41
26083;BME280;13848;49.018;12.078;2022-07-23T07:23:06;97782.56;;;23.49;57.27
26083;BME280;13848;49.018;12.078;2022-07-23T07:25:32;97777.47;;;23.56;56.61
26083;BME280;13848;49.018;12.078;2022-07-23T07:27:58;97771.88;;;23.61;56.91
26083;BME280;13848;49.018;12.078;2022-07-23T07:30:24;97766.72;;;23.74;56.36
26083;BME280;13848;49.018;12.078;2022-07-23T07:32:50;97784.25;;;23.78;55.41
26083;BME280;13848;49.018;12.078;2022-07-23T07:35:16;97789.84;;;24.00;54.79
26083;BME280;13848;49.018;12.078;2022-07-23T07:37:43;97789.97;;;23.95;54.81
26083;BME280;13848;49.018;12.078;2022-07-23T07:40:09;97793.81;;;24.22;54.94
26083;BME280;13848;49.018;12.078;2022-07-23T07:42:44;97782.19;;;24.38;53.72
26083;BME280;13848;49.018;12.078;2022-07-23T07:45:10;97793.00;;;24.49;53.87
26083;BME280;13848;49.018;12.078;2022-07-23T07:47:36;97796.25;;;24.64;53.06
26083;BME280;13848;49.018;12.078;2022-07-23T07:50:02;97806.53;;;24.73;52.74
26083;BME280;13848;49.018;12.078;2022-07-23T07:52:28;97807.44;;;24.82;52.63
26083;BME280;13848;49.018;12.078;2022-07-23T07:54:55;97802.06;;;24.99;52.51
26083;BME280;13848;49.018;12.078;2022-07-23T07:57:21;97801.81;;;25.09;51.15
26083;BME280;13848;49.018;12.078;2022-07-23T07:59:47;97789.03;;;25.13;50.89
26083;BME280;13848;49.018;12.078;2022-07-23T08:02:13;97804.13;;;25.38;50.47
26083;BME280;13848;49.018;12.078;2022-07-23T08:04:39;97810.53;;;25.25;50.16
26083;BME280;13848;49.018;12.078;2022-07-23T08:07:05;97814.81;;;25.09;49.93
26083;BME280;13848;49.018;12.078;2022-07-23T08:09:31;97810.09;;;25.09;50.63
26083;BME280;13848;49.018;12.078;2022-07-23T08:11:58;97811.00;;;25.05;49.87
26083;BME280;13848;49.018;12.078;2022-07-23T08:14:24;97807.09;;;25.19;49.71
26083;BME280;13848;49.018;12.078;2022-07-23T08:16:50;97816.66;;;25.22;49.51
26083;BME280;13848;49.018;12.078;2022-07-23T08:19:16;97819.88;;;25.38;49.03
26083;BME280;13848;49.018;12.078;2022-07-23T08:21:42;97817.88;;;25.30;48.57
26083;BME280;13848;49.018;12.078;2022-07-23T08:24:07;97821.69;;;25.42;48.29
26083;BME280;13848;49.018;12.078;2022-07-23T08:26:33;97815.72;;;25.49;47.65
26083;BME280;13848;49.018;12.078;2022-07-23T08:29:01;97823.75;;;25.59;47.42
26083;BME280;13848;49.018;12.078;2022-07-23T08:31:27;97817.44;;;25.67;47.02
26083;BME280;13848;49.018;12.078;2022-07-23T08:33:53;97828.25;;;25.78;46.98
26083;BME280;13848;49.018;12.078;2022-07-23T08:36:19;97822.94;;;25.81;46.29
26083;BME280;13848;49.018;12.078;2022-07-23T08:38:45;97825.59;;;25.72;46.70
26083;BME280;13848;49.018;12.078;2022-07-23T08:41:11;97825.88;;;25.62;47.22
26083;BME280;13848;49.018;12.078;2022-07-23T08:43:37;97837.09;;;25.66;46.80
26083;BME280;13848;49.018;12.078;2022-07-23T08:46:04;97823.50;;;25.69;46.81
26083;BME280;13848;49.018;12.078;2022-07-23T08:48:31;97831.38;;;25.85;46.94
26083;BME280;13848;49.018;12.078;2022-07-23T08:50:59;97824.78;;;26.03;46.95
26083;BME280;13848;49.018;12.078;2022-07-23T08:53:26;97826.78;;;26.11;45.69
26083;BME280;13848;49.018;12.078;2022-07-23T08:55:54;97836.97;;;26.02;45.79
26083;BME280;13848;49.018;12.078;2022-07-23T08:58:21;97820.06;;;25.95;46.41
26083;BME280;13848;49.018;12.078;2022-07-23T09:00:48;97820.53;;;25.97;46.23
26083;BME280;13848;49.018;12.078;2022-07-23T09:03:17;97804.34;;;26.04;46.78
26083;BME280;13848;49.018;12.078;2022-07-23T09:05:44;97814.72;;;26.07;46.65
26083;BME280;13848;49.018;12.078;2022-07-23T09:08:12;97826.13;;;26.14;46.36
26083;BME280;13848;49.018;12.078;2022-07-23T09:10:49;97812.50;;;26.09;46.98
26083;BME280;13848;49.018;12.078;2022-07-23T09:13:30;97809.41;;;26.19;46.96
26083;BME280;13848;49.018;12.078;2022-07-23T09:15:58;97802.75;;;26.20;46.73
26083;BME280;13848;49.018;12.078;2022-07-23T09:18:37;97803.25;;;26.31;46.39
26083;BME280;13848;49.018;12.078;2022-07-23T09:21:11;97810.72;;;26.22;46.50
26083;BME280;13848;49.018;12.078;2022-07-23T09:23:39;97809.97;;;26.39;46.32
26083;BME280;13848;49.018;12.078;2022-07-23T09:26:17;97797.25;;;26.29;46.65
26083;BME280;13848;49.018;12.078;2022-07-23T09:28:50;97803.41;;;26.17;46.87
26083;BME280;13848;49.018;12.078;2022-07-23T09:31:16;97796.88;;;26.13;47.14
26083;BME280;13848;49.018;12.078;2022-07-23T09:33:43;97793.47;;;26.16;46.88
26083;BME280;13848;49.018;12.078;2022-07-23T09:36:09;97801.44;;;26.18;46.69
26083;BME280;13848;49.018;12.078;2022-07-23T09:38:47;97802.47;;;26.39;46.46
26083;BME280;13848;49.018;12.078;2022-07-23T09:41:13;97798.47;;;26.45;45.67
26083;BME280;13848;49.018;12.078;2022-07-23T09:43:39;97801.97;;;26.37;46.38
26083;BME280;13848;49.018;12.078;2022-07-23T09:46:19;97803.59;;;26.30;46.98
26083;BME280;13848;49.018;12.078;2022-07-23T09:48:46;97811.97;;;26.47;46.95
26083;BME280;13848;49.018;12.078;2022-07-23T09:51:12;97812.94;;;26.51;46.21
26083;BME280;13848;49.018;12.078;2022-07-23T09:53:38;97812.63;;;26.61;47.40
26083;BME280;13848;49.018;12.078;2022-07-23T09:56:06;97803.84;;;26.76;46.71
26083;BME280;13848;49.018;12.078;2022-07-23T09:58:33;97813.25;;;26.41;48.51
26083;BME280;13848;49.018;12.078;2022-07-23T10:01:01;97811.66;;;26.57;48.56
26083;BME280;13848;49.018;12.078;2022-07-23T10:03:26;97807.25;;;26.56;48.56
26083;BME280;13848;49.018;12.078;2022-07-23T10:05:54;97797.66;;;26.45;48.93
26083;BME280;13848;49.018;12.078;2022-07-23T10:08:20;97798.13;;;26.47;49.23
26083;BME280;13848;49.018;12.078;2022-07-23T10:10:47;97808.06;;;26.48;48.80
26083;BME280;13848;49.018;12.078;2022-07-23T10:13:14;97791.72;;;26.38;48.83
26083;BME280;13848;49.018;12.078;2022-07-23T10:15:41;97796.44;;;26.29;49.37
26083;BME280;13848;49.018;12.078;2022-07-23T10:18:07;97806.91;;;26.49;48.48
26083;BME280;13848;49.018;12.078;2022-07-23T10:20:35;97799.28;;;26.63;48.85
26083;BME280;13848;49.018;12.078;2022-07-23T10:23:11;97793.28;;;26.78;48.10
26083;BME280;13848;49.018;12.078;2022-07-23T10:25:42;97792.47;;;26.87;47.10
26083;BME280;13848;49.018;12.078;2022-07-23T10:28:26;97792.94;;;26.89;47.54
26083;BME280;13848;49.018;12.078;2022-07-23T10:31:06;97784.00;;;26.92;47.97
26083;BME280;13848;49.018;12.078;2022-07-23T10:33:41;97789.84;;;26.64;48.08
26083;BME280;13848;49.018;12.078;2022-07-23T10:36:18;97784.19;;;26.87;47.81
26083;BME280;13848;49.018;12.078;2022-07-23T10:38:52;97781.41;;;26.87;47.58
26083;BME280;13848;49.018;12.078;2022-07-23T10:41:31;97781.22;;;27.00;47.48
26083;BME280;13848;49.018;12.078;2022-07-23T10:44:06;97766.13;;;27.07;46.88
26083;BME280;13848;49.018;12.078;2022-07-23T10:46:32;97774.38;;;27.24;46.50
26083;BME280;13848;49.018;12.078;2022-07-23T10:49:20;97772.72;;;27.49;46.40
26083;BME280;13848;49.018;12.078;2022-07-23T10:52:16;97758.66;;;27.71;45.60
26083;BME280;13848;49.018;12.078;2022-07-23T10:54:45;97758.16;;;27.78;45.84
26083;BME280;13848;49.018;12.078;2022-07-23T10:57:12;97746.25;;;27.69;45.42
26083;BME280;13848;49.018;12.078;2022-07-23T11:00:16;97747.97;;;27.91;44.13
26083;BME280;13848;49.018;12.078;2022-07-23T11:02:46;97751.81;;;28.07;43.67
26083;BME280;13848;49.018;12.078;2022-07-23T11:05:15;97744.63;;;28.06;43.79
26083;BME280;13848;49.018;12.078;2022-07-23T11:08:17;97738.16;;;28.02;42.91
26083;BME280;13848;49.018;12.078;2022-07-23T11:10:47;97736.94;;;28.11;42.86
26083;BME280;13848;49.018;12.078;2022-07-23T11:13:37;97737.97;;;28.07;43.29
26083;BME280;13848;49.018;12.078;2022-07-23T11:16:14;97741.56;;;27.99;42.62
26083;BME280;13848;49.018;12.078;2022-07-23T11:18:55;97743.69;;;28.02;43.16
26083;BME280;13848;49.018;12.078;2022-07-23T11:21:44;97749.22;;;28.02;43.48
26083;BME280;13848;49.018;12.078;2022-07-23T11:24:11;97775.03;;;27.94;43.92
26083;BME280;13848;49.018;12.078;2022-07-23T11:26:58;97774.72;;;27.87;44.60
26083;BME280;13848;49.018;12.078;2022-07-23T11:29:46;97798.22;;;27.80;49.93
26083;BME280;13848;49.018;12.078;2022-07-23T11:32:23;97826.31;;;27.53;50.54
26083;BME280;13848;49.018;12.078;2022-07-23T11:34:50;97816.25;;;26.96;54.65
26083;BME280;13848;49.018;12.078;2022-07-23T11:37:29;97808.59;;;26.85;53.59
26083;BME280;13848;49.018;12.078;2022-07-23T11:39:57;97805.81;;;26.10;59.61
26083;BME280;13848;49.018;12.078;2022-07-23T11:42:25;97799.28;;;26.63;55.73
26083;BME280;13848;49.018;12.078;2022-07-23T11:44:51;97792.56;;;25.90;61.52
26083;BME280;13848;49.018;12.078;2022-07-23T11:47:22;97795.19;;;25.64;65.57
26083;BME280;13848;49.018;12.078;2022-07-23T11:49:52;97789.34;;;25.65;64.76
26083;BME280;13848;49.018;12.078;2022-07-23T11:52:18;97786.34;;;26.15;61.66
26083;BME280;13848;49.018;12.078;2022-07-23T11:54:47;97772.75;;;25.88;67.18
26083;BME280;13848;49.018;12.078;2022-07-23T11:57:14;97786.00;;;25.77;63.50
26083;BME280;13848;49.018;12.078;2022-07-23T11:59:42;97779.94;;;26.06;63.15
26083;BME280;13848;49.018;12.078;2022-07-23T12:02:09;97772.94;;;26.09;64.17
26083;BME280;13848;49.018;12.078;2022-07-23T12:04:38;97770.63;;;26.42;57.35
26083;BME280;13848;49.018;12.078;2022-07-23T12:07:22;97787.91;;;26.56;57.49
26083;BME280;13848;49.018;12.078;2022-07-23T12:09:48;97787.41;;;26.63;58.44
26083;BME280;13848;49.018;12.078;2022-07-23T12:12:14;97784.34;;;26.82;60.85
26083;BME280;13848;49.018;12.078;2022-07-23T12:14:49;97773.59;;;27.06;59.42
26083;BME280;13848;49.018;12.078;2022-07-23T12:17:15;97775.38;;;27.28;58.54
26083;BME280;13848;49.018;12.078;2022-07-23T12:19:42;97771.13;;;27.30;54.23
26083;BME280;13848;49.018;12.078;2022-07-23T12:22:08;97767.66;;;27.51;54.05
26083;BME280;13848;49.018;12.078;2022-07-23T12:24:53;97775.59;;;27.70;55.75
26083;BME280;13848;49.018;12.078;2022-07-23T12:27:20;97770.56;;;27.63;54.88
26083;BME280;13848;49.018;12.078;2022-07-23T12:29:48;97763.78;;;27.35;57.35
26083;BME280;13848;49.018;12.078;2022-07-23T12:32:18;97747.50;;;27.24;54.12
26083;BME280;13848;49.018;12.078;2022-07-23T12:34:45;97763.50;;;27.10;56.47
26083;BME280;13848;49.018;12.078;2022-07-23T12:37:26;97755.34;;;27.05;56.42
26083;BME280;13848;49.018;12.078;2022-07-23T12:39:52;97764.47;;;26.97;56.05
26083;BME280;13848;49.018;12.078;2022-07-23T12:42:18;97751.28;;;26.94;56.32
26083;BME280;13848;49.018;12.078;2022-07-23T12:45:07;97751.94;;;26.91;57.82
26083;BME280;13848;49.018;12.078;2022-07-23T12:47:55;97750.81;;;27.09;55.84
26083;BME280;13848;49.018;12.078;2022-07-23T12:50:32;97754.72;;;27.08;59.13
26083;BME280;13848;49.018;12.078;2022-07-23T12:53:09;97753.72;;;27.21;61.49
26083;BME280;13848;49.018;12.078;2022-07-23T12:55:37;97751.09;;;27.34;60.19